• Join FlightAware (Why Join?)
  • Login
  • US Flag 
09:36AM EDT


 

Airport Tracker/Info


-or-


 

Live Flight TrackerFlight Track Log ✈ N301DM ✈ 25-Jul-2014 ✈ KCRE - KLRO

Flight Track Log - Related Links

Times and Time Zones

All times are in EDT time to prevent confusion due to time zone crossing. See the N301DM flight status page for this flight to view local times or setup timezone preferences in your user account.

Time Position Orientation Groundspeed Altitude Reporting Facility
EDT Latitude Longitude Course Direction KTS MPH feet Rate Location/Type
10:36AM 33.6370 -78.9130 220° Southwest  Level FlightAware Approximate
10:37AM 33.6043 -78.9457 220° Southwest  Level FlightAware Approximate
10:38AM 33.5730 -78.9804 223° Southwest  Level FlightAware Approximate
10:39AM 33.5420 -79.0153 223° Southwest  Level FlightAware Approximate
10:40AM 33.5109 -79.0503 223° Southwest  Level FlightAware Approximate
10:41AM 33.4799 -79.0852 223° Southwest  Level FlightAware Approximate
10:42AM 33.4590 -79.1254 224° Southwest  Level FlightAware Approximate
10:43AM 33.4283 -79.1606 224° Southwest  Level FlightAware Approximate
10:44AM 33.3975 -79.1958 224° Southwest  Level FlightAware Approximate
10:45AM 33.3667 -79.2310 224° Southwest  Level FlightAware Approximate
10:46AM 33.3350 -79.2650 220° Southwest  Level FlightAware Approximate
10:47AM 33.3024 -79.2977 220° Southwest  Level FlightAware Approximate
10:48AM 33.2697 -79.3303 220° Southwest  Level FlightAware Approximate
10:49AM 33.2370 -79.3630 220° Southwest  Level FlightAware Approximate
10:50AM 33.2140 -79.4054 239° Southwest  Level FlightAware Approximate
10:51AM 33.1847 -79.4333 180° South  Level FlightAware Approximate
10:52AM 33.1577 -79.4718 231° Southwest  Level FlightAware Approximate
10:53AM 33.1268 -79.5065 220° Southwest  Level FlightAware Approximate
10:54AM 33.0942 -79.5392 220° Southwest  Level FlightAware Approximate
10:55AM 33.0622 -79.5726 228° Southwest  Level FlightAware Approximate
10:56AM 33.0339 -79.6104 228° Southwest  Level FlightAware Approximate
10:57AM 33.0038 -79.6462 220° Southwest  Level FlightAware Approximate
10:58AM 32.9712 -79.6788 220° Southwest  Level FlightAware Approximate
10:59AM 32.9386 -79.7114 220° Southwest  Level FlightAware Approximate
11:00AM 32.9060 -79.7440 220° Southwest  Level FlightAware Approximate
11:01AM 32.8833 -79.7667 220° Southwest  Level FlightAware Approximate
11:02AM 32.8978 -79.7829 40° Northeast  Level Estimated